createdAt,value
2023-02-24T00:02:20.858Z,6.30
2023-02-24T00:04:51.926Z,6.10
2023-02-24T00:07:21.618Z,5.90
2023-02-24T00:09:50.275Z,6.38
2023-02-24T00:12:20.770Z,5.53
2023-02-24T00:14:49.368Z,5.40
2023-02-24T00:17:19.528Z,5.20
2023-02-24T00:19:47.906Z,5.03
2023-02-24T00:22:16.435Z,5.50
2023-02-24T00:24:44.722Z,5.45
2023-02-24T00:27:13.207Z,4.57
2023-02-24T00:29:42.910Z,5.07
2023-02-24T00:32:14.913Z,5.57
2023-02-24T00:34:45.195Z,5.95
2023-02-24T00:37:15.620Z,5.03
2023-02-24T00:39:46.941Z,5.18
2023-02-24T00:42:15.548Z,5.75
2023-02-24T00:44:47.159Z,5.82
2023-02-24T00:47:18.015Z,5.95
2023-02-24T00:49:50.602Z,4.53
2023-02-24T00:52:21.331Z,5.43
2023-02-24T00:54:50.982Z,5.53
2023-02-24T00:57:21.622Z,5.80
2023-02-24T00:59:53.031Z,4.72
2023-02-24T01:02:23.099Z,6.03
2023-02-24T01:04:53.154Z,5.57
2023-02-24T01:07:21.913Z,5.53
2023-02-24T01:09:51.897Z,5.78
2023-02-24T01:12:39.098Z,4.95
2023-02-24T01:15:11.248Z,5.00
2023-02-24T01:17:41.258Z,4.10
2023-02-24T01:20:18.455Z,5.38
2023-02-24T01:25:18.038Z,4.53
2023-02-24T01:27:46.677Z,4.88
2023-02-24T01:30:16.465Z,3.28
2023-02-24T01:32:46.835Z,3.88
2023-02-24T01:35:18.109Z,4.43
2023-02-24T01:37:46.792Z,4.70
2023-02-24T01:40:21.685Z,4.85
2023-02-24T01:42:51.983Z,4.80
2023-02-24T01:45:25.223Z,3.90
2023-02-24T01:47:54.515Z,4.78
2023-02-24T01:50:26.344Z,4.65
2023-02-24T01:52:59.481Z,4.70
2023-02-24T01:55:32.620Z,4.07
2023-02-24T01:58:04.902Z,4.72
2023-02-24T02:00:39.637Z,5.20
2023-02-24T02:03:13.611Z,4.55
2023-02-24T02:05:48.759Z,5.07
2023-02-24T02:08:19.290Z,4.35
2023-02-24T02:10:48.478Z,5.10
2023-02-24T02:13:21.619Z,4.35
2023-02-24T02:16:26.811Z,4.82
2023-02-24T02:19:07.768Z,4.35
2023-02-24T02:22:05.837Z,4.68
2023-02-24T02:24:48.804Z,4.70
2023-02-24T02:27:50.982Z,4.05
2023-02-24T02:30:45.838Z,4.57
2023-02-24T02:33:49.005Z,5.20
2023-02-24T02:36:23.080Z,4.75
2023-02-24T02:38:55.330Z,5.35
2023-02-24T02:41:28.631Z,5.32
2023-02-24T02:44:07.608Z,4.90
2023-02-24T02:46:40.156Z,5.22
2023-02-24T02:49:17.062Z,5.30
2023-02-24T02:51:52.967Z,4.65
2023-02-24T02:54:28.370Z,5.28
2023-02-24T02:57:01.666Z,4.97
2023-02-24T02:59:31.317Z,5.07
2023-02-24T03:02:12.103Z,4.63
2023-02-24T03:04:47.221Z,5.30
2023-02-24T03:07:18.011Z,4.93
2023-02-24T03:09:49.685Z,4.78
2023-02-24T03:12:23.331Z,4.72
2023-02-24T03:14:57.623Z,5.10
2023-02-24T03:17:29.012Z,5.15
2023-02-24T03:20:15.567Z,4.97
2023-02-24T03:22:50.464Z,4.25
2023-02-24T03:25:24.195Z,5.00
2023-02-24T03:27:55.852Z,4.45
2023-02-24T03:30:30.061Z,4.25
2023-02-24T03:35:35.387Z,4.63
2023-02-24T03:38:06.607Z,4.32
2023-02-24T03:40:36.238Z,4.88
2023-02-24T03:43:09.227Z,5.20
2023-02-24T03:45:40.222Z,5.70
2023-02-24T03:48:10.132Z,5.53
2023-02-24T03:50:40.912Z,4.18
2023-02-24T03:53:32.831Z,4.75
2023-02-24T03:56:11.130Z,3.67
2023-02-24T03:58:52.210Z,5.30
2023-02-24T04:01:27.007Z,4.35
2023-02-24T04:04:03.497Z,4.97
2023-02-24T04:06:50.474Z,4.65
2023-02-24T04:09:24.305Z,4.07
2023-02-24T04:12:09.938Z,4.78
2023-02-24T04:14:45.537Z,4.63
2023-02-24T04:17:19.464Z,4.75
2023-02-24T04:19:51.052Z,4.35
2023-02-24T04:22:24.797Z,5.00
2023-02-24T04:24:58.272Z,5.22
2023-02-24T04:27:28.536Z,5.53
2023-02-24T04:30:06.744Z,4.78
2023-02-24T04:32:35.878Z,3.25
2023-02-24T04:35:07.818Z,5.40
2023-02-24T04:37:44.655Z,4.53
2023-02-24T04:40:16.857Z,5.07
2023-02-24T04:42:51.440Z,4.47
2023-02-24T04:45:23.129Z,5.10
2023-02-24T04:47:53.192Z,4.20
2023-02-24T04:50:25.794Z,4.00
2023-02-24T04:52:57.654Z,4.53
2023-02-24T04:55:29.648Z,4.25
2023-02-24T04:57:58.380Z,4.00
2023-02-24T05:00:33.688Z,3.90
2023-02-24T05:03:03.708Z,4.70
2023-02-24T05:05:33.722Z,3.72
2023-02-24T05:08:06.380Z,5.03
2023-02-24T05:10:38.989Z,4.60
2023-02-24T05:13:09.380Z,4.47
2023-02-24T05:15:41.249Z,5.25
2023-02-24T05:18:14.312Z,5.03
2023-02-24T05:21:02.045Z,5.50
2023-02-24T05:23:34.827Z,5.55
2023-02-24T05:26:08.561Z,5.00
2023-02-24T05:28:38.049Z,4.53
2023-02-24T05:31:09.041Z,5.00
2023-02-24T05:33:39.613Z,5.53
2023-02-24T05:36:10.066Z,4.68
2023-02-24T05:38:40.478Z,4.93
2023-02-24T05:41:15.160Z,5.13
2023-02-24T05:46:17.182Z,4.93
2023-02-24T05:48:46.692Z,4.97
2023-02-24T05:51:15.227Z,5.65
2023-02-24T05:53:45.099Z,4.63
2023-02-24T05:56:13.528Z,5.75
2023-02-24T05:58:45.393Z,5.28
2023-02-24T06:01:16.451Z,4.90
2023-02-24T06:03:48.085Z,5.32
2023-02-24T06:06:17.590Z,5.20
2023-02-24T06:08:50.885Z,5.57
2023-02-24T06:11:21.244Z,5.30
2023-02-24T06:13:50.943Z,5.47
2023-02-24T06:16:20.274Z,5.88
2023-02-24T06:18:51.090Z,5.95
2023-02-24T06:21:20.230Z,5.85
2023-02-24T06:23:50.585Z,5.07
2023-02-24T06:26:21.687Z,5.68
2023-02-24T06:28:54.213Z,6.22
2023-02-24T06:31:23.402Z,6.32
2023-02-24T06:33:53.298Z,6.38
2023-02-24T06:36:22.436Z,6.10
2023-02-24T06:38:52.858Z,6.95
2023-02-24T06:41:22.047Z,6.30
2023-02-24T06:43:50.696Z,6.38
2023-02-24T06:46:20.592Z,6.05
2023-02-24T06:48:49.284Z,6.30
2023-02-24T06:51:17.828Z,6.88
2023-02-24T06:53:46.412Z,4.85
2023-02-24T06:56:19.997Z,6.53
2023-02-24T06:58:50.683Z,5.72
2023-02-24T07:01:22.442Z,6.47
2023-02-24T07:04:17.914Z,6.68
2023-02-24T07:06:49.621Z,4.15
2023-02-24T07:09:18.837Z,6.40
2023-02-24T07:11:52.429Z,7.78
2023-02-24T07:14:22.421Z,7.00
2023-02-24T07:16:54.822Z,6.72
2023-02-24T07:19:25.735Z,7.00
2023-02-24T07:22:00.300Z,6.38
2023-02-24T07:27:05.945Z,6.03
2023-02-24T07:29:35.642Z,6.68
2023-02-24T07:32:07.116Z,8.77
2023-02-24T07:34:40.283Z,7.20
2023-02-24T07:37:10.274Z,6.32
2023-02-24T07:39:39.912Z,5.72
2023-02-24T07:42:12.712Z,7.50
2023-02-24T07:44:49.330Z,6.57
2023-02-24T07:47:19.004Z,7.40
2023-02-24T07:49:47.383Z,6.97
2023-02-24T07:52:16.289Z,6.88
2023-02-24T07:54:44.792Z,7.30
2023-02-24T07:57:15.019Z,8.15
2023-02-24T07:59:47.621Z,7.10
2023-02-24T08:02:17.013Z,7.10
2023-02-24T08:04:50.591Z,8.02
2023-02-24T08:07:25.697Z,7.97
2023-02-24T08:10:12.179Z,6.53
2023-02-24T08:12:43.811Z,8.40
2023-02-24T08:15:24.230Z,7.97
2023-02-24T08:17:56.773Z,7.50
2023-02-24T08:20:26.990Z,7.35
2023-02-24T08:22:55.821Z,6.78
2023-02-24T08:25:25.730Z,7.75
2023-02-24T08:28:07.841Z,7.65
2023-02-24T08:30:45.293Z,7.93
2023-02-24T08:33:17.698Z,7.03
2023-02-24T08:35:46.200Z,7.38
2023-02-24T08:38:17.019Z,7.00
2023-02-24T08:40:55.240Z,8.52
2023-02-24T08:43:34.979Z,8.10
2023-02-24T08:46:12.733Z,7.63
2023-02-24T08:48:45.322Z,7.30
2023-02-24T08:51:18.021Z,8.35
2023-02-24T08:53:47.285Z,8.50
2023-02-24T08:56:24.533Z,8.23
2023-02-24T08:58:58.260Z,7.55
2023-02-24T09:01:35.117Z,9.52
2023-02-24T09:04:07.804Z,8.05
2023-02-24T09:06:41.087Z,8.10
2023-02-24T09:09:18.810Z,8.43
2023-02-24T09:11:49.574Z,8.32
2023-02-24T09:14:29.063Z,8.40
2023-02-24T09:17:06.560Z,8.73
2023-02-24T09:19:58.952Z,8.48
2023-02-24T09:22:37.873Z,8.18
2023-02-24T09:25:24.147Z,7.72
2023-02-24T09:27:56.014Z,9.50
2023-02-24T09:30:37.216Z,7.93
2023-02-24T09:33:18.292Z,9.02
2023-02-24T09:35:52.325Z,8.73
2023-02-24T09:38:36.939Z,8.83
2023-02-24T09:41:32.015Z,8.32
2023-02-24T09:44:03.908Z,8.40
2023-02-24T09:46:39.428Z,9.70
2023-02-24T09:49:17.386Z,8.25
2023-02-24T09:51:46.108Z,8.55
2023-02-24T09:54:17.490Z,8.27
2023-02-24T09:56:57.402Z,8.30
2023-02-24T09:59:30.372Z,9.35
2023-02-24T10:02:05.980Z,8.23
2023-02-24T10:05:07.352Z,10.27
2023-02-24T10:07:39.908Z,13.07
2023-02-24T10:10:28.288Z,13.60
2023-02-24T10:13:02.530Z,10.48
2023-02-24T10:15:59.310Z,8.95
2023-02-24T10:18:35.022Z,11.18
2023-02-24T10:21:10.571Z,9.40
2023-02-24T10:23:56.800Z,11.10
2023-02-24T10:26:51.334Z,10.32
2023-02-24T10:29:39.316Z,12.77
2023-02-24T10:32:23.901Z,9.93
2023-02-24T10:34:55.119Z,13.60
2023-02-24T10:37:29.587Z,13.15
2023-02-24T10:40:00.051Z,13.07
2023-02-24T10:42:31.828Z,12.02
2023-02-24T10:45:18.023Z,12.05
2023-02-24T10:47:57.014Z,9.00
2023-02-24T10:50:32.391Z,15.10
2023-02-24T10:53:26.529Z,11.27
2023-02-24T10:56:15.163Z,8.57
2023-02-24T10:58:56.855Z,9.70
2023-02-24T11:01:43.905Z,10.23
2023-02-24T11:04:33.784Z,7.93
2023-02-24T11:07:12.452Z,11.70
2023-02-24T11:09:52.432Z,9.13
2023-02-24T11:12:40.381Z,9.25
2023-02-24T11:15:38.172Z,9.13
2023-02-24T11:18:08.982Z,8.90
2023-02-24T11:20:48.551Z,9.85
2023-02-24T11:23:21.760Z,11.43
2023-02-24T11:25:53.579Z,11.70
2023-02-24T11:28:42.102Z,7.85
2023-02-24T11:31:23.047Z,9.15
2023-02-24T11:33:59.791Z,8.93
2023-02-24T11:36:34.096Z,8.70
2023-02-24T11:39:18.734Z,8.93
2023-02-24T11:41:53.464Z,9.10
2023-02-24T11:44:26.035Z,9.43
2023-02-24T11:46:57.839Z,9.25
2023-02-24T11:49:30.915Z,9.80
2023-02-24T11:52:04.077Z,9.18
2023-02-24T11:54:39.392Z,9.13
2023-02-24T11:57:15.466Z,9.32
2023-02-24T11:59:47.186Z,8.93
2023-02-24T12:02:19.827Z,8.80
2023-02-24T12:04:55.942Z,9.38
2023-02-24T12:07:28.542Z,9.85
2023-02-24T12:10:14.432Z,9.30
2023-02-24T12:12:50.912Z,11.02
2023-02-24T12:15:24.720Z,9.75
2023-02-24T12:17:59.180Z,9.15
2023-02-24T12:20:32.166Z,9.88
2023-02-24T12:23:04.378Z,9.00
2023-02-24T12:25:44.146Z,9.38
2023-02-24T12:28:18.727Z,8.98
2023-02-24T12:31:01.414Z,8.40
2023-02-24T12:33:49.491Z,10.30
2023-02-24T12:36:37.917Z,9.63
2023-02-24T12:39:16.007Z,10.50
2023-02-24T12:41:56.191Z,9.20
2023-02-24T12:44:35.572Z,9.10
2023-02-24T12:47:08.535Z,9.35
2023-02-24T12:50:07.877Z,10.05
2023-02-24T12:52:44.486Z,9.50
2023-02-24T12:55:16.825Z,10.15
2023-02-24T12:57:49.618Z,9.68
2023-02-24T13:00:23.819Z,10.05
2023-02-24T13:03:01.460Z,10.50
2023-02-24T13:05:33.306Z,10.18
2023-02-24T13:08:18.791Z,10.02
2023-02-24T13:10:50.380Z,10.57
2023-02-24T13:13:27.119Z,9.93
2023-02-24T13:15:57.240Z,9.20
2023-02-24T13:18:27.806Z,10.45
2023-02-24T13:21:08.442Z,9.93
2023-02-24T13:23:38.493Z,9.35
2023-02-24T13:26:11.773Z,10.18
2023-02-24T13:28:41.848Z,9.90
2023-02-24T13:31:13.290Z,10.95
2023-02-24T13:33:44.443Z,10.02
2023-02-24T13:36:21.643Z,10.07
2023-02-24T13:38:52.279Z,10.23
2023-02-24T13:41:36.495Z,11.15
2023-02-24T13:44:25.023Z,10.85
2023-02-24T13:47:22.982Z,10.48
2023-02-24T13:50:00.083Z,9.50
2023-02-24T13:52:42.900Z,9.57
2023-02-24T13:55:23.062Z,9.20
2023-02-24T13:58:16.982Z,9.40
2023-02-24T14:01:00.590Z,9.10
2023-02-24T14:03:30.266Z,9.65
2023-02-24T14:06:00.164Z,10.05
2023-02-24T14:08:40.436Z,9.90
2023-02-24T14:11:11.817Z,11.80
2023-02-24T14:13:40.730Z,9.23
2023-02-24T14:16:16.068Z,9.55
2023-02-24T14:18:53.741Z,10.00
2023-02-24T14:21:24.041Z,9.70
2023-02-24T14:23:59.752Z,10.45
2023-02-24T14:26:29.112Z,9.30
2023-02-24T14:29:00.569Z,8.95
2023-02-24T14:31:31.514Z,11.13
2023-02-24T14:34:01.884Z,10.35
2023-02-24T14:36:32.828Z,10.73
2023-02-24T14:39:04.849Z,10.38
2023-02-24T14:41:34.454Z,9.68
2023-02-24T14:44:07.645Z,9.45
2023-02-24T14:46:47.710Z,10.05
2023-02-24T14:49:24.255Z,8.88
2023-02-24T14:51:58.948Z,8.98
2023-02-24T14:54:43.095Z,10.13
2023-02-24T14:57:15.143Z,9.95
2023-02-24T14:59:47.556Z,10.10
2023-02-24T15:02:20.664Z,9.52
2023-02-24T15:04:49.529Z,10.80
2023-02-24T15:07:20.452Z,10.63
2023-02-24T15:09:53.621Z,12.02
2023-02-24T15:12:25.262Z,9.40
2023-02-24T15:14:56.137Z,10.02
2023-02-24T15:17:26.333Z,9.60
2023-02-24T15:19:57.829Z,10.15
2023-02-24T15:22:28.718Z,9.65
2023-02-24T15:25:08.737Z,10.00
2023-02-24T15:27:37.201Z,9.98
2023-02-24T15:30:08.301Z,8.93
2023-02-24T15:32:39.473Z,10.27
2023-02-24T15:35:08.948Z,10.15
2023-02-24T15:37:42.792Z,10.18
2023-02-24T15:40:20.983Z,10.40
2023-02-24T15:42:56.185Z,11.05
2023-02-24T15:45:27.329Z,10.80
2023-02-24T15:48:00.329Z,10.57
2023-02-24T15:50:30.396Z,10.40
2023-02-24T15:53:00.502Z,10.27
2023-02-24T15:55:32.816Z,10.57
2023-02-24T15:58:04.198Z,10.93
2023-02-24T16:00:32.972Z,10.30
2023-02-24T16:03:02.826Z,11.13
2023-02-24T16:05:31.411Z,11.15
2023-02-24T16:07:59.772Z,11.02
2023-02-24T16:10:30.436Z,10.18
2023-02-24T16:13:00.804Z,10.70
2023-02-24T16:15:31.133Z,10.50
2023-02-24T16:18:00.108Z,12.10
2023-02-24T16:20:33.629Z,10.88
2023-02-24T16:23:04.902Z,10.73
2023-02-24T16:25:37.895Z,11.15
2023-02-24T16:28:06.674Z,10.68
2023-02-24T16:30:37.673Z,11.00
2023-02-24T16:33:06.726Z,10.90
2023-02-24T16:35:39.000Z,11.50
2023-02-24T16:38:07.676Z,11.32
2023-02-24T16:40:38.365Z,9.82
2023-02-24T16:43:06.965Z,11.07
2023-02-24T16:45:38.071Z,11.23
2023-02-24T16:48:09.024Z,11.18
2023-02-24T16:50:41.014Z,12.02
2023-02-24T16:53:09.580Z,10.88
2023-02-24T16:55:38.293Z,10.60
2023-02-24T16:58:06.968Z,11.38
2023-02-24T17:00:35.441Z,10.25
2023-02-24T17:03:08.384Z,10.40
2023-02-24T17:05:38.273Z,10.63
2023-02-24T17:08:06.961Z,11.38
2023-02-24T17:10:39.252Z,11.15
2023-02-24T17:13:08.988Z,11.68
2023-02-24T17:15:37.475Z,10.73
2023-02-24T17:18:06.331Z,10.57
2023-02-24T17:20:35.432Z,11.25
2023-02-24T17:23:05.451Z,10.80
2023-02-24T17:25:34.579Z,11.27
2023-02-24T17:28:06.252Z,11.60
2023-02-24T17:30:36.624Z,12.15
2023-02-24T17:33:05.436Z,11.02
2023-02-24T17:35:34.130Z,10.85
2023-02-24T17:38:02.925Z,11.77
2023-02-24T17:40:32.776Z,11.85
2023-02-24T17:43:01.178Z,11.60
2023-02-24T17:45:29.975Z,11.95
2023-02-24T17:47:58.565Z,11.25
2023-02-24T17:50:27.163Z,11.63
2023-02-24T17:52:56.897Z,11.30
2023-02-24T17:55:25.687Z,11.60
2023-02-24T17:57:57.189Z,12.45
2023-02-24T18:00:26.030Z,10.85
2023-02-24T18:02:54.806Z,11.50
2023-02-24T18:05:23.367Z,11.23
2023-02-24T18:07:51.866Z,11.88
2023-02-24T18:10:20.767Z,11.25
2023-02-24T18:12:49.356Z,12.02
2023-02-24T18:15:19.542Z,12.18
2023-02-24T18:17:48.075Z,10.80
2023-02-24T18:20:16.641Z,12.00
2023-02-24T18:22:45.181Z,12.55
2023-02-24T18:25:13.906Z,12.52
2023-02-24T18:27:42.308Z,12.18
2023-02-24T18:30:18.107Z,11.80
2023-02-24T18:32:50.023Z,11.73
2023-02-24T18:35:22.075Z,11.38
2023-02-24T18:37:56.419Z,12.25
2023-02-24T18:40:25.567Z,11.68
2023-02-24T18:42:54.251Z,11.98
2023-02-24T18:45:24.420Z,11.27
2023-02-24T18:47:54.545Z,12.60
2023-02-24T18:50:25.211Z,10.90
2023-02-24T18:52:53.961Z,10.90
2023-02-24T18:55:23.131Z,11.93
2023-02-24T18:57:51.879Z,11.38
2023-02-24T19:00:21.112Z,11.48
2023-02-24T19:02:49.797Z,11.20
2023-02-24T19:05:20.621Z,11.43
2023-02-24T19:07:49.113Z,11.43
2023-02-24T19:10:18.645Z,10.93
2023-02-24T19:12:50.715Z,10.90
2023-02-24T19:15:19.715Z,12.30
2023-02-24T19:17:48.192Z,11.85
2023-02-24T19:20:16.998Z,9.57
2023-02-24T19:22:48.734Z,11.43
2023-02-24T19:25:19.355Z,10.55
2023-02-24T19:27:48.543Z,11.60
2023-02-24T19:30:17.503Z,11.43
2023-02-24T19:32:46.029Z,11.95
2023-02-24T19:35:14.929Z,11.63
2023-02-24T19:37:46.051Z,12.25
2023-02-24T19:40:16.233Z,11.05
2023-02-24T19:42:47.224Z,11.05
2023-02-24T19:45:17.234Z,10.43
2023-02-24T19:47:46.977Z,9.90
2023-02-24T19:50:16.484Z,10.27
2023-02-24T19:52:45.032Z,13.10
2023-02-24T19:55:15.397Z,12.60
2023-02-24T19:57:44.324Z,10.75
2023-02-24T20:00:14.387Z,10.05
2023-02-24T20:02:44.031Z,11.00
2023-02-24T20:05:12.638Z,9.93
2023-02-24T20:07:41.644Z,11.50
2023-02-24T20:10:11.721Z,10.77
2023-02-24T20:12:42.707Z,10.93
2023-02-24T20:15:12.018Z,10.63
2023-02-24T20:17:40.440Z,9.85
2023-02-24T20:20:10.122Z,11.65
2023-02-24T20:22:38.666Z,11.25
2023-02-24T20:25:09.970Z,10.57
2023-02-24T20:27:38.464Z,12.15
2023-02-24T20:30:09.629Z,12.07
2023-02-24T20:32:39.127Z,10.27
2023-02-24T20:35:08.802Z,11.35
2023-02-24T20:37:37.809Z,8.70
2023-02-24T20:40:09.038Z,12.35
2023-02-24T20:42:37.665Z,10.43
2023-02-24T20:45:08.746Z,11.43
2023-02-24T20:47:37.289Z,11.18
2023-02-24T20:50:06.964Z,10.60
2023-02-24T20:52:37.684Z,12.20
2023-02-24T20:55:06.581Z,12.10
2023-02-24T20:57:35.216Z,12.90
2023-02-24T21:00:07.996Z,12.45
2023-02-24T21:02:41.486Z,13.55
2023-02-24T21:05:10.783Z,12.00
2023-02-24T21:07:39.838Z,12.70
2023-02-24T21:10:08.803Z,13.45
2023-02-24T21:12:37.262Z,13.57
2023-02-24T21:15:06.600Z,12.38
2023-02-24T21:17:35.084Z,14.05
2023-02-24T21:20:05.407Z,8.77
2023-02-24T21:22:33.947Z,13.20
2023-02-24T21:25:02.597Z,16.33
2023-02-24T21:27:31.341Z,13.88
2023-02-24T21:29:59.954Z,13.02
2023-02-24T21:32:28.914Z,14.10
2023-02-24T21:34:58.738Z,13.30
2023-02-24T21:37:28.713Z,13.77
2023-02-24T21:39:57.423Z,13.15
2023-02-24T21:42:27.809Z,13.48
2023-02-24T21:45:02.510Z,12.60
2023-02-24T21:47:32.848Z,12.50
2023-02-24T21:50:01.344Z,14.65
2023-02-24T21:52:32.823Z,15.07
2023-02-24T21:55:01.434Z,15.50
2023-02-24T21:57:31.638Z,11.65
2023-02-24T22:00:02.239Z,10.85
2023-02-24T22:02:36.746Z,13.50
2023-02-24T22:05:05.519Z,13.40
2023-02-24T22:07:37.324Z,9.48
2023-02-24T22:10:06.742Z,13.02
2023-02-24T22:12:35.209Z,13.02
2023-02-24T22:15:04.525Z,11.38
2023-02-24T22:17:33.125Z,10.88
2023-02-24T22:20:01.618Z,10.73
2023-02-24T22:22:30.431Z,10.75
2023-02-24T22:25:00.385Z,11.48
2023-02-24T22:27:30.220Z,11.50
2023-02-24T22:29:58.791Z,11.75
2023-02-24T22:32:27.377Z,11.43
2023-02-24T22:34:55.953Z,11.95
2023-02-24T22:37:24.372Z,9.82
2023-02-24T22:39:54.051Z,11.25
2023-02-24T22:42:23.820Z,11.93
2023-02-24T22:44:52.152Z,14.02
2023-02-24T22:47:21.916Z,13.68
2023-02-24T22:49:50.393Z,12.50
2023-02-24T22:52:19.364Z,14.48
2023-02-24T22:54:47.790Z,14.50
2023-02-24T22:57:17.119Z,13.50
2023-02-24T22:59:47.293Z,13.40
2023-02-24T23:02:15.720Z,14.18
2023-02-24T23:04:44.476Z,5.18
2023-02-24T23:07:12.864Z,10.75
2023-02-24T23:09:47.049Z,13.48
2023-02-24T23:12:17.286Z,12.82
2023-02-24T23:14:47.178Z,12.35
2023-02-24T23:17:15.729Z,13.57
2023-02-24T23:19:44.049Z,12.90
2023-02-24T23:22:12.433Z,12.20
2023-02-24T23:24:41.150Z,11.45
2023-02-24T23:27:09.987Z,12.77
2023-02-24T23:29:38.437Z,13.15
2023-02-24T23:32:08.654Z,12.43
2023-02-24T23:34:37.010Z,12.38
2023-02-24T23:37:06.084Z,12.98
2023-02-24T23:39:34.574Z,12.20
2023-02-24T23:42:03.149Z,13.13
2023-02-24T23:44:33.924Z,14.05
2023-02-24T23:47:05.111Z,13.23
2023-02-24T23:49:47.575Z,12.70
2023-02-24T23:52:16.973Z,12.93
2023-02-24T23:54:45.405Z,13.45
2023-02-24T23:57:14.590Z,12.77
2023-02-24T23:59:43.180Z,9.05
